createdAt,value
2019-05-20T00:00:09.640Z,0
2019-05-20T00:00:50.208Z,0
2019-05-20T00:01:30.772Z,0
2019-05-20T00:02:23.430Z,0
2019-05-20T00:08:16.879Z,0
2019-05-20T00:08:57.504Z,0
2019-05-20T00:09:38.079Z,0
2019-05-20T00:10:18.682Z,0
2019-05-20T00:10:59.240Z,0
2019-05-20T00:11:39.847Z,0
2019-05-20T00:12:20.424Z,0
2019-05-20T00:15:59.846Z,0
2019-05-20T00:16:40.439Z,0
2019-05-20T00:17:21.089Z,0
2019-05-20T00:18:01.666Z,0
2019-05-20T00:21:24.661Z,0
2019-05-20T00:22:05.246Z,0
2019-05-20T00:22:45.847Z,0
2019-05-20T00:23:26.436Z,0
2019-05-20T00:24:06.992Z,0
2019-05-20T00:24:47.612Z,0
2019-05-20T00:25:28.198Z,0
2019-05-20T00:26:08.776Z,0
2019-05-20T00:26:49.361Z,0
2019-05-20T00:30:52.895Z,0
2019-05-20T00:31:33.477Z,0
2019-05-20T00:32:14.057Z,0
2019-05-20T00:32:54.675Z,0
2019-05-20T00:33:35.201Z,0
2019-05-20T00:34:15.775Z,0
2019-05-20T00:34:56.376Z,0
2019-05-20T00:35:37.024Z,0
2019-05-20T00:36:17.599Z,0
2019-05-20T00:42:22.888Z,0
2019-05-20T00:43:03.489Z,0
2019-05-20T00:43:44.069Z,0
2019-05-20T00:44:24.731Z,0
2019-05-20T00:45:05.354Z,0
2019-05-20T00:45:45.961Z,0
2019-05-20T00:46:26.540Z,0
2019-05-20T00:47:07.118Z,0
2019-05-20T00:47:47.693Z,0
2019-05-20T00:53:53.004Z,0
2019-05-20T00:54:33.573Z,0
2019-05-20T00:55:14.144Z,0
2019-05-20T00:55:54.742Z,0
2019-05-20T00:56:35.276Z,0
2019-05-20T00:57:15.855Z,0
2019-05-20T00:57:56.444Z,0
2019-05-20T00:58:37.007Z,0
2019-05-20T00:59:17.563Z,0
2019-05-20T01:05:22.932Z,0
2019-05-20T01:06:03.492Z,0
2019-05-20T01:06:44.147Z,0
2019-05-20T01:07:24.696Z,0
2019-05-20T01:08:05.288Z,0
2019-05-20T01:08:45.888Z,0
2019-05-20T01:09:26.505Z,0
2019-05-20T01:10:07.087Z,0
2019-05-20T01:10:47.687Z,0
2019-05-20T01:16:53.168Z,0
2019-05-20T01:17:33.807Z,0
2019-05-20T01:18:14.414Z,0
2019-05-20T01:18:55.080Z,0
2019-05-20T01:19:35.640Z,0
2019-05-20T01:20:16.194Z,0
2019-05-20T01:20:56.737Z,0
2019-05-20T01:21:37.369Z,0
2019-05-20T01:28:23.207Z,0
2019-05-20T01:29:03.805Z,0
2019-05-20T01:29:44.367Z,0
2019-05-20T01:30:24.987Z,0
2019-05-20T01:31:05.582Z,0
2019-05-20T01:31:46.140Z,0
2019-05-20T01:32:26.718Z,0
2019-05-20T01:33:13.581Z,0
2019-05-20T01:39:53.201Z,0
2019-05-20T01:40:33.839Z,0
2019-05-20T01:41:14.407Z,0
2019-05-20T01:41:55.013Z,0
2019-05-20T01:42:35.543Z,0
2019-05-20T01:43:16.140Z,0
2019-05-20T01:43:56.738Z,0
2019-05-20T01:44:37.407Z,0
2019-05-20T01:49:32.977Z,0
2019-05-20T01:50:13.536Z,0
2019-05-20T01:50:54.147Z,0
2019-05-20T01:51:34.760Z,0
2019-05-20T01:54:57.651Z,0
2019-05-20T01:55:38.235Z,0
2019-05-20T01:56:18.820Z,0
2019-05-20T01:59:58.238Z,0
2019-05-20T02:00:38.795Z,0
2019-05-20T02:01:19.423Z,0
2019-05-20T02:01:59.983Z,0
2019-05-20T02:05:22.904Z,0
2019-05-20T02:06:03.473Z,0
2019-05-20T02:06:44.043Z,0
2019-05-20T02:07:24.668Z,0
2019-05-20T02:08:05.295Z,0
2019-05-20T02:08:45.850Z,0
2019-05-20T02:09:26.405Z,0
2019-05-20T02:10:06.996Z,0
2019-05-20T02:10:47.582Z,0
2019-05-20T02:14:13.191Z,0
2019-05-20T02:14:53.758Z,0
2019-05-20T02:15:34.321Z,0
2019-05-20T02:16:14.939Z,0
2019-05-20T02:16:55.513Z,0
2019-05-20T02:17:36.129Z,0
2019-05-20T02:18:16.702Z,0
2019-05-20T02:18:57.293Z,0
2019-05-20T02:25:02.859Z,0
2019-05-20T02:25:46.660Z,0
2019-05-20T02:26:24.040Z,0
2019-05-20T02:27:04.604Z,0
2019-05-20T02:27:45.171Z,0
2019-05-20T02:28:25.795Z,0
2019-05-20T02:29:06.384Z,0
2019-05-20T02:29:46.941Z,0
2019-05-20T02:30:27.558Z,0
2019-05-20T02:36:32.974Z,0
2019-05-20T02:37:13.583Z,0
2019-05-20T02:37:54.173Z,0
2019-05-20T02:38:34.770Z,0
2019-05-20T02:39:15.347Z,0
2019-05-20T02:39:55.915Z,0
2019-05-20T02:40:36.513Z,0
2019-05-20T02:41:17.111Z,0
2019-05-20T02:41:57.694Z,0
2019-05-20T02:48:03.016Z,0
2019-05-20T02:48:43.562Z,0
2019-05-20T02:49:24.133Z,0
2019-05-20T02:50:04.736Z,0
2019-05-20T02:50:45.317Z,0
2019-05-20T02:51:25.859Z,0
2019-05-20T02:52:06.417Z,0
2019-05-20T02:52:47.018Z,0
2019-05-20T02:53:27.635Z,0
2019-05-20T02:59:32.874Z,0
2019-05-20T03:00:13.460Z,0
2019-05-20T03:00:54.014Z,0
2019-05-20T03:01:34.582Z,0
2019-05-20T03:02:15.132Z,0
2019-05-20T03:02:55.696Z,0
2019-05-20T03:03:36.359Z,0
2019-05-20T03:04:16.959Z,0
2019-05-20T03:04:57.589Z,0
2019-05-20T03:11:02.970Z,0
2019-05-20T03:11:43.570Z,0
2019-05-20T03:12:24.136Z,5
2019-05-20T03:13:04.715Z,5
2019-05-20T03:13:45.284Z,5
2019-05-20T03:14:25.865Z,5
2019-05-20T03:15:06.427Z,5
2019-05-20T03:15:47.007Z,5
2019-05-20T03:16:27.585Z,5
2019-05-20T03:22:32.861Z,5
2019-05-20T03:23:13.706Z,10
2019-05-20T03:23:54.300Z,10
2019-05-20T03:24:34.882Z,10
2019-05-20T03:25:15.463Z,10
2019-05-20T03:25:56.053Z,10
2019-05-20T03:26:36.622Z,10
2019-05-20T03:27:17.172Z,10
2019-05-20T03:27:57.745Z,10
2019-05-20T03:34:03.156Z,15
2019-05-20T03:34:51.091Z,15
2019-05-20T03:35:24.250Z,15
2019-05-20T03:36:04.833Z,15
2019-05-20T03:36:45.396Z,15
2019-05-20T03:37:25.990Z,20
2019-05-20T03:38:06.559Z,20
2019-05-20T03:38:47.151Z,20
2019-05-20T03:39:27.702Z,20
2019-05-20T03:45:32.962Z,25
2019-05-20T03:46:13.618Z,25
2019-05-20T03:46:54.204Z,25
2019-05-20T03:47:34.819Z,25
2019-05-20T03:48:15.371Z,25
2019-05-20T03:48:56.038Z,25
2019-05-20T03:49:36.621Z,25
2019-05-20T03:50:17.202Z,25
2019-05-20T03:50:57.805Z,30
2019-05-20T03:57:03.108Z,30
2019-05-20T03:57:43.711Z,30
2019-05-20T03:58:24.281Z,30
2019-05-20T03:59:04.870Z,35
2019-05-20T03:59:45.470Z,35
2019-05-20T04:00:26.058Z,35
2019-05-20T04:01:06.660Z,35
2019-05-20T04:01:47.253Z,35
2019-05-20T04:02:27.823Z,35
2019-05-20T04:08:33.096Z,45
2019-05-20T04:09:13.718Z,45
2019-05-20T04:09:54.275Z,50
2019-05-20T04:10:34.839Z,50
2019-05-20T04:11:15.457Z,50
2019-05-20T04:11:56.081Z,50
2019-05-20T04:12:36.647Z,50
2019-05-20T04:13:17.284Z,55
2019-05-20T04:13:57.857Z,55
2019-05-20T04:19:22.773Z,55
2019-05-20T04:20:03.355Z,55
2019-05-20T04:20:43.942Z,60
2019-05-20T04:21:24.607Z,60
2019-05-20T04:22:05.179Z,60
2019-05-20T04:22:45.764Z,65
2019-05-20T04:23:26.640Z,65
2019-05-20T04:24:07.220Z,65
2019-05-20T04:24:47.798Z,65
2019-05-20T04:30:53.183Z,75
2019-05-20T04:31:33.751Z,75
2019-05-20T04:32:14.314Z,75
2019-05-20T04:32:55.152Z,75
2019-05-20T04:33:36.104Z,75
2019-05-20T04:34:16.782Z,80
2019-05-20T04:39:02.881Z,70
2019-05-20T04:39:43.563Z,70
2019-05-20T04:40:24.147Z,70
2019-05-20T04:41:04.692Z,70
2019-05-20T04:41:45.838Z,70
2019-05-20T04:42:26.747Z,65
2019-05-20T04:43:07.367Z,65
2019-05-20T04:48:33.000Z,80
2019-05-20T04:49:13.789Z,85
2019-05-20T04:49:54.364Z,90
2019-05-20T04:50:35.027Z,95
2019-05-20T04:51:15.723Z,95
2019-05-20T04:51:56.315Z,95
2019-05-20T04:52:36.879Z,95
2019-05-20T04:53:17.445Z,90
2019-05-20T04:59:22.814Z,95
2019-05-20T05:00:03.363Z,95
2019-05-20T05:00:43.927Z,100
2019-05-20T05:01:24.510Z,100
2019-05-20T05:02:05.105Z,105
2019-05-20T05:02:45.713Z,105
2019-05-20T05:03:26.304Z,105
2019-05-20T05:04:06.898Z,110
2019-05-20T05:04:47.500Z,110
2019-05-20T05:10:52.987Z,110
2019-05-20T05:11:33.547Z,110
2019-05-20T05:12:14.101Z,110
2019-05-20T05:12:54.679Z,115
2019-05-20T05:13:35.244Z,125
2019-05-20T05:14:15.913Z,130
2019-05-20T05:14:56.526Z,140
2019-05-20T05:15:37.174Z,145
2019-05-20T05:20:53.111Z,160
2019-05-20T05:21:33.820Z,160
2019-05-20T05:22:14.364Z,155
2019-05-20T05:22:55.000Z,150
2019-05-20T05:26:18.274Z,160
2019-05-20T05:26:58.842Z,170
2019-05-20T05:27:39.418Z,175
2019-05-20T05:28:20.016Z,225
2019-05-20T05:29:00.610Z,400
2019-05-20T05:29:41.274Z,495
2019-05-20T05:30:21.871Z,470
2019-05-20T05:31:02.649Z,645
2019-05-20T05:37:08.502Z,730
2019-05-20T05:37:49.639Z,640
2019-05-20T05:38:30.685Z,635
2019-05-20T05:39:11.362Z,585
2019-05-20T05:39:52.133Z,405
2019-05-20T05:45:57.993Z,385
2019-05-20T05:46:38.621Z,470
2019-05-20T05:47:19.198Z,670
2019-05-20T05:47:59.851Z,730
2019-05-20T05:48:40.417Z,755
2019-05-20T05:49:21.038Z,870
2019-05-20T05:50:01.680Z,960
2019-05-20T05:50:42.241Z,935
2019-05-20T05:56:47.754Z,1120
2019-05-20T05:57:28.383Z,755
2019-05-20T05:58:09.465Z,780
2019-05-20T05:58:49.690Z,695
2019-05-20T05:59:30.266Z,865
2019-05-20T06:00:10.831Z,775
2019-05-20T06:00:51.484Z,730
2019-05-20T06:01:32.045Z,945
2019-05-20T06:02:12.691Z,1110
2019-05-20T06:07:37.898Z,720
2019-05-20T06:08:18.866Z,630
2019-05-20T06:08:59.240Z,640
2019-05-20T06:09:39.855Z,820
2019-05-20T06:10:20.478Z,750
2019-05-20T06:11:01.070Z,480
2019-05-20T06:11:41.679Z,510
2019-05-20T06:12:22.263Z,495
2019-05-20T06:19:08.268Z,1685
2019-05-20T06:19:48.901Z,1670
2019-05-20T06:20:29.496Z,1685
2019-05-20T06:21:10.182Z,1700
2019-05-20T06:21:50.784Z,1715
2019-05-20T06:22:31.858Z,1715
2019-05-20T06:23:12.544Z,1765
2019-05-20T06:28:37.748Z,1760
2019-05-20T06:29:18.599Z,1750
2019-05-20T06:29:59.246Z,1750
2019-05-20T06:30:39.851Z,1740
2019-05-20T06:31:20.425Z,1690
2019-05-20T06:32:01.001Z,1685
2019-05-20T06:32:41.574Z,1655
2019-05-20T06:33:22.158Z,1265
2019-05-20T06:39:27.650Z,785
2019-05-20T06:40:08.277Z,685
2019-05-20T06:40:48.834Z,1105
2019-05-20T06:41:29.425Z,1340
2019-05-20T06:42:09.988Z,1710
2019-05-20T06:42:50.591Z,1615
2019-05-20T06:43:31.598Z,1765
2019-05-20T06:44:12.118Z,1820
2019-05-20T06:44:55.084Z,1795
2019-05-20T06:50:18.004Z,1705
2019-05-20T06:50:58.624Z,1800
2019-05-20T06:51:39.211Z,1810
2019-05-20T06:52:34.782Z,1830
2019-05-20T06:53:00.430Z,1930
2019-05-20T06:53:41.068Z,1925
2019-05-20T06:54:21.639Z,1630
2019-05-20T06:55:02.305Z,1600
2019-05-20T07:01:48.155Z,1590
2019-05-20T07:02:28.728Z,1490
2019-05-20T07:03:09.347Z,1375
2019-05-20T07:03:49.933Z,1295
2019-05-20T07:04:30.542Z,1210
2019-05-20T07:05:11.118Z,1230
2019-05-20T07:05:51.734Z,1235
2019-05-20T07:06:45.271Z,1200
2019-05-20T07:12:41.418Z,785
2019-05-20T07:13:18.522Z,750
2019-05-20T07:13:59.106Z,745
2019-05-20T07:14:39.757Z,725
2019-05-20T07:15:20.338Z,615
2019-05-20T07:16:00.908Z,620
2019-05-20T07:16:41.585Z,610
2019-05-20T07:17:22.187Z,620
2019-05-20T07:23:27.729Z,590
2019-05-20T07:24:08.288Z,560
2019-05-20T07:24:48.839Z,480
2019-05-20T07:25:29.491Z,535
2019-05-20T07:26:10.039Z,600
2019-05-20T07:26:50.689Z,595
2019-05-20T07:27:31.246Z,605
2019-05-20T07:28:11.861Z,610
2019-05-20T07:28:52.451Z,610
2019-05-20T07:34:57.886Z,525
2019-05-20T07:35:38.569Z,530
2019-05-20T07:36:19.155Z,500
2019-05-20T07:37:03.507Z,455
2019-05-20T07:37:40.353Z,475
2019-05-20T07:38:20.984Z,480
2019-05-20T07:39:01.660Z,455
2019-05-20T07:39:42.258Z,425
2019-05-20T07:45:47.654Z,315
2019-05-20T07:46:28.261Z,305
2019-05-20T07:47:10.874Z,320
2019-05-20T07:47:49.417Z,415
2019-05-20T07:48:30.180Z,525
2019-05-20T07:49:10.705Z,540
2019-05-20T07:49:51.288Z,570
2019-05-20T07:50:31.980Z,570
2019-05-20T07:51:12.501Z,535
2019-05-20T07:57:17.963Z,455
2019-05-20T07:57:58.563Z,385
2019-05-20T07:58:39.225Z,370
2019-05-20T07:59:19.830Z,380
2019-05-20T08:00:00.453Z,375
2019-05-20T08:00:41.040Z,375
2019-05-20T08:01:21.700Z,390
2019-05-20T08:02:02.303Z,385
2019-05-20T08:08:07.977Z,350
2019-05-20T08:08:48.533Z,350
2019-05-20T08:09:29.171Z,350
2019-05-20T08:10:09.932Z,335
2019-05-20T08:10:50.489Z,345
2019-05-20T08:11:31.117Z,325
2019-05-20T08:13:43.967Z,310
2019-05-20T08:14:24.559Z,320
2019-05-20T08:15:05.126Z,315
2019-05-20T08:15:45.680Z,315
2019-05-20T08:19:08.622Z,290
2019-05-20T08:19:49.218Z,280
2019-05-20T08:20:29.811Z,285
2019-05-20T08:21:10.396Z,280
2019-05-20T08:21:50.974Z,280
2019-05-20T08:22:31.555Z,275
2019-05-20T08:23:12.469Z,270
2019-05-20T08:23:52.996Z,265
2019-05-20T08:24:33.556Z,265
2019-05-20T08:30:38.706Z,245
2019-05-20T08:31:19.304Z,235
2019-05-20T08:31:59.897Z,235
2019-05-20T08:32:40.420Z,235
2019-05-20T08:33:20.992Z,230
2019-05-20T08:34:01.573Z,230
2019-05-20T08:34:42.161Z,230
2019-05-20T08:35:23.766Z,225
2019-05-20T08:36:03.284Z,225
2019-05-20T08:42:49.061Z,210
2019-05-20T08:43:29.631Z,205
2019-05-20T08:44:10.191Z,200
2019-05-20T08:44:50.752Z,205
2019-05-20T08:45:31.344Z,190
2019-05-20T08:46:11.912Z,190
2019-05-20T08:46:52.490Z,180
2019-05-20T08:47:33.166Z,180
2019-05-20T08:54:18.849Z,155
2019-05-20T08:54:59.509Z,155
2019-05-20T08:55:40.046Z,165
2019-05-20T08:56:20.622Z,160
2019-05-20T08:57:01.199Z,165
2019-05-20T08:57:41.764Z,165
2019-05-20T08:58:22.337Z,160
2019-05-20T08:59:02.929Z,160
2019-05-20T08:59:43.466Z,160
2019-05-20T09:05:48.711Z,165
2019-05-20T09:06:29.301Z,165
2019-05-20T09:07:09.891Z,170
2019-05-20T09:08:01.945Z,175
2019-05-20T09:08:31.018Z,170
2019-05-20T09:09:12.437Z,170
2019-05-20T09:09:52.159Z,175
2019-05-20T09:10:32.728Z,180
2019-05-20T09:11:13.361Z,185
2019-05-20T09:17:29.916Z,185
2019-05-20T09:18:10.495Z,185
2019-05-20T09:18:51.068Z,175
2019-05-20T09:19:31.610Z,170
2019-05-20T09:24:47.388Z,180
2019-05-20T09:25:27.920Z,180
2019-05-20T09:26:08.467Z,180
2019-05-20T09:26:49.059Z,175
2019-05-20T09:32:04.709Z,195
2019-05-20T09:32:45.252Z,195
2019-05-20T09:33:25.831Z,190
2019-05-20T09:34:06.412Z,185
2019-05-20T09:40:02.722Z,180
2019-05-20T09:40:43.298Z,165
2019-05-20T09:41:23.869Z,185
2019-05-20T09:42:04.475Z,180
2019-05-20T09:45:27.480Z,175
2019-05-20T09:46:08.433Z,175
2019-05-20T09:46:48.607Z,180
2019-05-20T09:47:29.203Z,175
2019-05-20T09:48:09.726Z,175
2019-05-20T09:48:50.416Z,175
2019-05-20T09:49:30.998Z,165
2019-05-20T09:50:11.600Z,165
2019-05-20T09:50:52.135Z,165
2019-05-20T09:56:57.401Z,150
2019-05-20T09:57:38.001Z,155
2019-05-20T09:58:18.544Z,150
2019-05-20T09:58:59.119Z,155
2019-05-20T09:59:43.006Z,150
2019-05-20T10:00:20.261Z,160
2019-05-20T10:01:00.873Z,160
2019-05-20T10:01:41.464Z,155
2019-05-20T10:02:22.050Z,150
2019-05-20T10:08:36.823Z,155
2019-05-20T10:09:07.941Z,150
2019-05-20T10:09:48.532Z,150
2019-05-20T10:10:29.125Z,145
2019-05-20T10:11:09.708Z,140
2019-05-20T10:11:50.315Z,135
2019-05-20T10:12:44.976Z,140
2019-05-20T10:13:11.501Z,140
2019-05-20T10:13:52.054Z,125
2019-05-20T10:19:57.458Z,135
2019-05-20T10:20:38.025Z,160
2019-05-20T10:21:18.656Z,165
2019-05-20T10:21:59.354Z,160
2019-05-20T10:22:39.876Z,155
2019-05-20T10:23:20.536Z,145
2019-05-20T10:24:01.202Z,165
2019-05-20T10:24:41.856Z,180
2019-05-20T10:31:27.819Z,165
2019-05-20T10:32:08.393Z,155
2019-05-20T10:32:48.950Z,160
2019-05-20T10:33:29.561Z,165
2019-05-20T10:34:10.128Z,165
2019-05-20T10:34:50.691Z,165
2019-05-20T10:35:31.304Z,175
2019-05-20T10:36:11.887Z,170
2019-05-20T10:42:57.646Z,175
2019-05-20T10:43:38.204Z,170
2019-05-20T10:44:18.891Z,180
2019-05-20T10:44:59.402Z,190
2019-05-20T10:45:39.976Z,185
2019-05-20T10:46:20.530Z,200
2019-05-20T10:47:01.185Z,200
2019-05-20T10:47:41.710Z,190
2019-05-20T10:48:22.271Z,185
2019-05-20T10:54:27.460Z,145
2019-05-20T10:55:08.035Z,140
2019-05-20T10:55:48.640Z,135
2019-05-20T10:56:29.255Z,130
2019-05-20T10:57:09.802Z,130
2019-05-20T10:57:50.353Z,125
2019-05-20T10:58:31.051Z,120
2019-05-20T10:59:12.186Z,120
2019-05-20T10:59:52.301Z,115
2019-05-20T11:05:57.905Z,80
2019-05-20T11:06:38.486Z,80
2019-05-20T11:07:19.113Z,85
2019-05-20T11:07:59.704Z,85
2019-05-20T11:08:40.279Z,90
2019-05-20T11:09:20.859Z,90
2019-05-20T11:10:01.431Z,95
2019-05-20T11:10:42.014Z,100
2019-05-20T11:16:47.371Z,110
2019-05-20T11:17:28.038Z,105
2019-05-20T11:18:08.595Z,105
2019-05-20T11:18:49.188Z,100
2019-05-20T11:19:29.891Z,95
2019-05-20T11:20:10.473Z,95
2019-05-20T11:20:51.012Z,90
2019-05-20T11:21:31.666Z,90
2019-05-20T11:22:12.289Z,90
2019-05-20T11:28:17.725Z,80
2019-05-20T11:28:58.308Z,80
2019-05-20T11:29:38.902Z,85
2019-05-20T11:30:19.491Z,85
2019-05-20T11:31:00.107Z,90
2019-05-20T11:31:40.739Z,90
2019-05-20T11:32:21.351Z,90
2019-05-20T11:33:01.983Z,95
2019-05-20T11:39:07.519Z,135
2019-05-20T11:39:47.887Z,135
2019-05-20T11:40:28.492Z,135
2019-05-20T11:41:09.061Z,135
2019-05-20T11:41:54.330Z,135
2019-05-20T11:42:30.246Z,135
2019-05-20T11:43:10.792Z,135
2019-05-20T11:43:51.386Z,135
2019-05-20T11:44:32.036Z,135
2019-05-20T11:51:17.816Z,125
2019-05-20T11:51:58.416Z,125
2019-05-20T11:52:39.031Z,125
2019-05-20T11:53:19.639Z,125
2019-05-20T11:54:00.219Z,125
2019-05-20T11:54:40.792Z,130
2019-05-20T11:55:21.369Z,130
2019-05-20T11:56:02.017Z,130
2019-05-20T12:02:07.317Z,115
2019-05-20T12:02:47.932Z,115
2019-05-20T12:03:28.490Z,110
2019-05-20T12:04:09.133Z,110
2019-05-20T12:04:49.698Z,110
2019-05-20T12:05:30.306Z,110
2019-05-20T12:06:10.905Z,110
2019-05-20T12:09:50.515Z,105
2019-05-20T12:10:30.992Z,105
2019-05-20T12:11:11.598Z,100
2019-05-20T12:11:52.179Z,100
2019-05-20T12:17:48.477Z,100
2019-05-20T12:18:29.045Z,100
2019-05-20T12:19:09.758Z,105
2019-05-20T12:19:50.314Z,105
2019-05-20T12:23:13.322Z,115
2019-05-20T12:23:54.042Z,120
2019-05-20T12:24:34.613Z,120
2019-05-20T12:25:15.173Z,125
2019-05-20T12:25:55.744Z,125
2019-05-20T12:26:36.634Z,130
2019-05-20T12:27:17.243Z,130
2019-05-20T12:27:57.819Z,130
2019-05-20T12:34:03.064Z,125
2019-05-20T12:34:43.673Z,125
2019-05-20T12:35:24.310Z,125
2019-05-20T12:36:04.872Z,125
2019-05-20T12:36:45.653Z,125
2019-05-20T12:37:26.235Z,125
2019-05-20T12:38:06.822Z,125
2019-05-20T12:38:47.379Z,120
2019-05-20T12:39:28.118Z,120
2019-05-20T12:45:33.370Z,105
2019-05-20T12:46:13.929Z,110
2019-05-20T12:46:54.518Z,110
2019-05-20T12:47:35.224Z,115
2019-05-20T12:48:15.795Z,115
2019-05-20T12:48:56.396Z,120
2019-05-20T12:49:36.922Z,125
2019-05-20T12:50:17.576Z,125
2019-05-20T12:57:03.595Z,120
2019-05-20T12:57:44.163Z,120
2019-05-20T12:58:24.742Z,120
2019-05-20T12:59:05.383Z,120
2019-05-20T12:59:46.016Z,120
2019-05-20T13:00:26.702Z,115
2019-05-20T13:01:07.286Z,115
2019-05-20T13:01:47.846Z,115
2019-05-20T13:07:53.345Z,90
2019-05-20T13:08:33.966Z,85
2019-05-20T13:09:14.582Z,85
2019-05-20T13:09:55.159Z,80
2019-05-20T13:10:35.730Z,75
2019-05-20T13:11:16.297Z,70
2019-05-20T13:11:56.942Z,70
2019-05-20T13:12:37.501Z,65
2019-05-20T13:13:18.062Z,65
2019-05-20T13:19:23.252Z,60
2019-05-20T13:20:03.806Z,55
2019-05-20T13:20:44.414Z,55
2019-05-20T13:21:25.014Z,55
2019-05-20T13:22:05.620Z,55
2019-05-20T13:22:46.215Z,55
2019-05-20T13:23:26.817Z,55
2019-05-20T13:24:07.383Z,55
2019-05-20T13:24:47.942Z,55
2019-05-20T13:30:53.146Z,45
2019-05-20T13:31:33.783Z,45
2019-05-20T13:32:14.377Z,45
2019-05-20T13:32:55.003Z,40
2019-05-20T13:33:35.563Z,40
2019-05-20T13:34:18.297Z,35
2019-05-20T13:34:56.789Z,35
2019-05-20T13:38:36.539Z,20
2019-05-20T13:39:17.148Z,20
2019-05-20T13:39:57.676Z,20
2019-05-20T13:40:46.189Z,20
2019-05-20T13:43:21.552Z,20
2019-05-20T13:44:02.292Z,20
2019-05-20T13:44:42.858Z,20
2019-05-20T13:45:23.446Z,20
2019-05-20T13:46:04.020Z,20
2019-05-20T13:49:31.383Z,15
2019-05-20T13:50:11.264Z,15
2019-05-20T13:50:51.859Z,15
2019-05-20T13:51:32.437Z,15
2019-05-20T13:52:12.980Z,15
2019-05-20T13:52:53.537Z,15
2019-05-20T13:53:34.101Z,15
2019-05-20T13:54:14.714Z,15
2019-05-20T13:54:55.271Z,15
2019-05-20T13:55:35.874Z,10
2019-05-20T14:01:41.114Z,10
2019-05-20T14:02:21.708Z,10
2019-05-20T14:03:02.358Z,10
2019-05-20T14:03:42.910Z,10
2019-05-20T14:04:23.569Z,10
2019-05-20T14:05:04.145Z,10
2019-05-20T14:05:44.745Z,10
2019-05-20T14:06:25.315Z,10
2019-05-20T14:07:06.058Z,10
2019-05-20T14:10:31.496Z,5
2019-05-20T14:11:12.194Z,5
2019-05-20T14:11:53.060Z,5
2019-05-20T14:12:34.565Z,5
2019-05-20T14:13:15.972Z,5
2019-05-20T14:18:01.694Z,5
2019-05-20T14:18:42.300Z,5
2019-05-20T14:19:23.006Z,5
2019-05-20T14:20:03.979Z,5
2019-05-20T14:20:45.418Z,5
2019-05-20T14:21:25.835Z,5
2019-05-20T14:25:31.755Z,0
2019-05-20T14:26:13.406Z,0
2019-05-20T14:26:53.549Z,0
2019-05-20T14:27:34.526Z,5
2019-05-20T14:28:15.308Z,5
2019-05-20T14:28:55.914Z,5
2019-05-20T14:33:41.043Z,0
2019-05-20T14:34:21.643Z,0
2019-05-20T14:35:02.285Z,0
2019-05-20T14:35:43.404Z,0
2019-05-20T14:36:38.271Z,0
2019-05-20T14:37:04.870Z,5
2019-05-20T14:37:45.427Z,5
2019-05-20T14:38:26.072Z,5
2019-05-20T14:41:20.742Z,5
2019-05-20T14:41:52.479Z,5
2019-05-20T14:42:33.037Z,5
2019-05-20T14:43:13.618Z,5
2019-05-20T14:43:54.287Z,5
2019-05-20T14:44:34.878Z,5
2019-05-20T14:45:15.439Z,5
2019-05-20T14:45:56.062Z,5
2019-05-20T14:49:21.220Z,5
2019-05-20T14:50:01.792Z,5
2019-05-20T14:50:42.428Z,5
2019-05-20T14:51:22.991Z,5
2019-05-20T14:52:03.538Z,0
2019-05-20T14:52:44.108Z,0
2019-05-20T14:53:25.373Z,0
2019-05-20T14:54:05.930Z,0
2019-05-20T15:00:11.190Z,0
2019-05-20T15:00:51.795Z,0
2019-05-20T15:01:33.211Z,0
2019-05-20T15:02:15.065Z,0
2019-05-20T15:02:55.688Z,0
2019-05-20T15:07:41.920Z,0
2019-05-20T15:08:24.123Z,0
2019-05-20T15:09:04.847Z,0
2019-05-20T15:14:31.765Z,0
2019-05-20T15:15:12.354Z,0
2019-05-20T15:15:52.911Z,0
2019-05-20T15:16:33.478Z,0
2019-05-20T15:18:41.520Z,0
2019-05-20T15:19:22.087Z,0
2019-05-20T15:20:02.657Z,0
2019-05-20T15:20:43.429Z,0
2019-05-20T15:21:28.682Z,0
2019-05-20T15:22:05.510Z,0
2019-05-20T15:23:39.441Z,0
2019-05-20T15:24:21.594Z,0
2019-05-20T15:25:04.632Z,0
2019-05-20T15:25:46.005Z,0
2019-05-20T15:29:26.829Z,0
2019-05-20T15:29:54.425Z,5
2019-05-20T15:30:34.089Z,0
2019-05-20T15:31:14.649Z,0
2019-05-20T15:31:55.215Z,0
2019-05-20T15:32:35.779Z,0
2019-05-20T15:38:01.087Z,0
2019-05-20T15:38:41.649Z,0
2019-05-20T15:39:22.962Z,0
2019-05-20T15:40:03.533Z,0
2019-05-20T15:40:44.163Z,0
2019-05-20T15:41:25.704Z,0
2019-05-20T15:47:31.081Z,5
2019-05-20T15:48:11.640Z,5
2019-05-20T15:48:52.211Z,5
2019-05-20T15:49:32.767Z,5
2019-05-20T15:50:13.384Z,5
2019-05-20T15:50:53.965Z,10
2019-05-20T15:51:34.516Z,5
2019-05-20T15:52:15.081Z,5
2019-05-20T15:52:55.675Z,5
2019-05-20T15:59:01.059Z,10
2019-05-20T15:59:45.823Z,10
2019-05-20T16:00:22.962Z,5
2019-05-20T16:01:03.526Z,5
2019-05-20T16:01:44.134Z,5
2019-05-20T16:02:24.777Z,5
2019-05-20T16:03:05.451Z,5
2019-05-20T16:03:46.019Z,5
2019-05-20T16:09:51.262Z,15
2019-05-20T16:10:31.815Z,15
2019-05-20T16:11:12.413Z,15
2019-05-20T16:11:53.047Z,15
2019-05-20T16:12:34.313Z,20
2019-05-20T16:13:14.235Z,20
2019-05-20T16:13:54.789Z,20
2019-05-20T16:14:35.349Z,15
2019-05-20T16:15:15.925Z,15
2019-05-20T16:21:21.234Z,35
2019-05-20T16:22:01.840Z,35
2019-05-20T16:22:42.382Z,35
2019-05-20T16:23:22.964Z,35
2019-05-20T16:27:02.397Z,55
2019-05-20T16:27:42.971Z,55
2019-05-20T16:28:23.537Z,55
2019-05-20T16:29:04.105Z,60
2019-05-20T16:32:27.146Z,45
2019-05-20T16:33:07.742Z,50
2019-05-20T16:33:49.158Z,50
2019-05-20T16:34:29.727Z,50
2019-05-20T16:35:10.515Z,50
2019-05-20T16:35:51.066Z,50
2019-05-20T16:36:31.728Z,75
2019-05-20T16:43:17.575Z,65
2019-05-20T16:43:58.078Z,65
2019-05-20T16:44:38.747Z,60
2019-05-20T16:45:19.342Z,55
2019-05-20T16:45:59.901Z,50
2019-05-20T16:46:40.490Z,45
2019-05-20T16:47:21.073Z,45
2019-05-20T16:48:01.635Z,45
2019-05-20T16:54:47.472Z,40
2019-05-20T16:55:28.029Z,40
2019-05-20T16:56:08.591Z,40
2019-05-20T16:56:49.337Z,45
2019-05-20T16:57:29.920Z,40
2019-05-20T16:58:10.616Z,40
2019-05-20T16:58:51.075Z,35
2019-05-20T16:59:31.734Z,35
2019-05-20T17:07:29.637Z,20
2019-05-20T17:08:10.221Z,20
2019-05-20T17:08:50.800Z,20
2019-05-20T17:09:31.368Z,20
2019-05-20T17:13:05.359Z,20
2019-05-20T17:13:46.016Z,20
2019-05-20T17:14:26.625Z,20
2019-05-20T17:15:07.215Z,20
2019-05-20T17:18:30.103Z,15
2019-05-20T17:19:10.652Z,15
2019-05-20T17:19:51.224Z,15
2019-05-20T17:20:31.784Z,15
2019-05-20T17:21:12.400Z,15
2019-05-20T17:21:52.987Z,15
2019-05-20T17:22:33.546Z,15
2019-05-20T17:23:14.162Z,15
2019-05-20T17:23:54.959Z,15
2019-05-20T17:30:00.022Z,20
2019-05-20T17:30:45.202Z,25
2019-05-20T17:31:21.193Z,25
2019-05-20T17:32:01.838Z,25
2019-05-20T17:32:42.401Z,30
2019-05-20T17:33:23.034Z,25
2019-05-20T17:34:03.639Z,30
2019-05-20T17:34:44.232Z,25
2019-05-20T17:35:24.857Z,30
2019-05-20T17:41:30.138Z,15
2019-05-20T17:42:10.692Z,15
2019-05-20T17:42:51.468Z,15
2019-05-20T17:43:32.360Z,15
2019-05-20T17:44:12.971Z,15
2019-05-20T17:44:53.619Z,15
2019-05-20T17:45:34.244Z,15
2019-05-20T17:46:14.822Z,15
2019-05-20T17:52:20.267Z,30
2019-05-20T17:53:00.921Z,35
2019-05-20T17:53:41.552Z,40
2019-05-20T17:54:22.277Z,40
2019-05-20T17:55:02.884Z,40
2019-05-20T17:55:43.858Z,40
2019-05-20T17:56:24.658Z,40
2019-05-20T18:02:30.076Z,30
2019-05-20T18:03:10.719Z,30
2019-05-20T18:03:51.330Z,30
2019-05-20T18:04:31.926Z,25
2019-05-20T18:05:14.761Z,25
2019-05-20T18:05:53.135Z,25
2019-05-20T18:06:34.008Z,20
2019-05-20T18:07:14.598Z,20
2019-05-20T18:13:19.995Z,15
2019-05-20T18:14:00.585Z,10
2019-05-20T18:14:41.155Z,10
2019-05-20T18:15:21.770Z,10
2019-05-20T18:16:02.346Z,10
2019-05-20T18:16:42.915Z,10
2019-05-20T18:17:23.525Z,10
2019-05-20T18:18:04.121Z,10
2019-05-20T18:18:44.666Z,5
2019-05-20T18:23:29.914Z,5
2019-05-20T18:24:10.614Z,5
2019-05-20T18:24:51.171Z,0
2019-05-20T18:25:31.754Z,0
2019-05-20T18:26:12.361Z,0
2019-05-20T18:26:52.949Z,0
2019-05-20T18:27:33.572Z,0
2019-05-20T18:28:14.224Z,0
2019-05-20T18:28:54.768Z,0
2019-05-20T18:35:00.135Z,0
2019-05-20T18:35:40.720Z,0
2019-05-20T18:36:21.307Z,0
2019-05-20T18:37:01.903Z,0
2019-05-20T18:37:42.506Z,0
2019-05-20T18:38:23.064Z,0